KBAX

Details ICAO KBAX
Name HURON CO MEM
Region United States
Timezone America/Detroit (UTC-5.0)
Plans Departing 3
Arriving 2
Stats Elevation 766 ft / 233 m (AMSL)
Location 43.780630° -82.985502°
Runways 2
Magnetic Variation 7.919° W
Sunrise 2017-12-18 13:02:31 UTC / 2017-12-18 08:02:31 Local
Sunset 2017-12-18 21:57:31 UTC / 2017-12-18 16:57:31 Local
Advertisement - Login to hide

Runways

ID Width Length Bearing (true) Bearing (mag) Surface Threshold Offset Overrun Length
04 75 ft / 23 m 3,496 ft / 1,065 m 28.28° 36.20° Asphalt 300 ft / 91 m 0 ft / 0 m
17 75 ft / 23 m 5,005 ft / 1,525 m 164.82° 172.74° Asphalt 0 ft / 0 m 0 ft / 0 m
22 75 ft / 23 m 3,496 ft / 1,065 m 208.28° 216.20° Asphalt 0 ft / 0 m 0 ft / 0 m
35 75 ft / 23 m 5,005 ft / 1,525 m 344.82° 352.74° Asphalt 0 ft / 0 m 0 ft / 0 m

Map

Weather


0- 5 10 15 20 25 30 35+ Temperature / ° C

Clouds and Precipitation
Forecast for 2017-12-18 12:00 UTC. Updated an hour ago

Ground ~20,000 ft ~40,000 ft Winds

METAR

KBAX 181235Z AUTO 00000KT 1 3/4SM -SN OVC004 00/M01 A2991 RMK AO2 T10051008

TAF

Not found

Frequencies

Unicom 122.97 MHz CTAF/UNICOM
Warning: Do not use this data for real-world aviation or navigation. No guarantee of current accuracy is given.